Time;durP1;ratioP1;P1;durP2;ratioP2;P2;SDS_P1;SDS_P2;PMS_P1;PMS_P2;Temp;Humidity;BMP_temperature;BMP_pressure;BME280_temperature;BME280_humidity;BME280_pressure;Samples;Min_cycle;Max_cycle;Signal;HPM_P1;HPM_P2
2021/01/10 00:02:25;;;;;;;23.15;14.73;;;9.20;61.00;;;;;;5103704;28;20027;-66
2021/01/10 00:04:51;;;;;;;22.05;12.57;;;9.20;61.10;;;;;;5103370;28;20030;-67
2021/01/10 00:07:25;;;;;;;20.98;13.38;;;9.20;61.30;;;;;;5103327;28;20024;-67
2021/01/10 00:09:51;;;;;;;21.15;13.20;;;9.20;61.40;;;;;;5103287;28;20354;-65
2021/01/10 00:12:24;;;;;;;22.65;14.05;;;9.20;61.40;;;;;;5102369;28;20026;-67
2021/01/10 00:14:50;;;;;;;21.98;13.25;;;9.20;61.60;;;;;;5103392;28;20020;-67
2021/01/10 00:17:16;;;;;;;21.73;13.85;;;9.20;61.60;;;;;;5102999;28;20291;-65
2021/01/10 00:19:46;;;;;;;19.92;12.02;;;9.20;61.60;;;;;;5103076;28;20043;-68
2021/01/10 00:22:13;;;;;;;17.55;11.82;;;9.20;61.70;;;;;;5103063;28;20079;-67
2021/01/10 00:24:41;;;;;;;22.98;13.98;;;9.20;61.50;;;;;;5103005;28;20234;-67
2021/01/10 00:27:09;;;;;;;21.55;13.63;;;9.20;61.40;;;;;;5103065;28;20100;-68
2021/01/10 00:29:36;;;;;;;19.45;12.20;;;9.20;61.30;;;;;;5103242;28;20208;-68
2021/01/10 00:32:02;;;;;;;20.73;13.35;;;9.20;61.30;;;;;;5102835;28;20383;-66
2021/01/10 00:34:28;;;;;;;22.92;13.40;;;9.20;61.30;;;;;;5102815;28;20019;-67
2021/01/10 00:36:53;;;;;;;22.92;13.52;;;9.20;61.30;;;;;;5102744;28;20016;-67
2021/01/10 00:39:19;;;;;;;18.63;12.57;;;9.20;61.20;;;;;;5102691;28;20028;-66
2021/01/10 00:41:45;;;;;;;19.80;12.85;;;9.20;61.20;;;;;;5101536;28;20031;-67
2021/01/10 00:44:10;;;;;;;20.55;13.45;;;9.20;61.30;;;;;;5102706;28;20024;-64
2021/01/10 00:46:36;;;;;;;24.20;14.43;;;9.20;61.40;;;;;;5102680;28;20190;-68
2021/01/10 00:49:02;;;;;;;23.08;13.70;;;9.20;61.40;;;;;;5102585;28;20023;-68
2021/01/10 00:51:28;;;;;;;23.15;14.63;;;9.20;61.30;;;;;;5102577;28;20024;-64
2021/01/10 00:53:53;;;;;;;24.75;14.45;;;9.30;61.40;;;;;;5102549;28;20016;-66
2021/01/10 00:56:19;;;;;;;23.55;13.98;;;9.20;61.40;;;;;;5102368;28;20028;-66
2021/01/10 00:58:45;;;;;;;22.95;14.68;;;9.20;61.40;;;;;;5102472;28;20066;-66
2021/01/10 01:01:11;;;;;;;27.40;14.35;;;9.20;61.40;;;;;;5102400;28;20024;-66
2021/01/10 01:03:37;;;;;;;23.58;14.10;;;9.20;62.10;;;;;;5102486;28;20133;-65
2021/01/10 01:06:04;;;;;;;21.90;14.25;;;9.20;61.50;;;;;;5102360;28;20312;-67
2021/01/10 01:08:30;;;;;;;23.33;14.52;;;9.20;61.40;;;;;;5102393;28;20368;-66
2021/01/10 01:10:56;;;;;;;22.73;14.23;;;9.20;61.40;;;;;;5102385;28;20098;-65
2021/01/10 01:13:24;;;;;;;22.77;14.23;;;9.20;61.20;;;;;;5102324;28;20060;-66
2021/01/10 01:15:50;;;;;;;25.58;14.02;;;9.20;61.40;;;;;;5102236;28;20027;-68
2021/01/10 01:18:20;;;;;;;23.00;14.57;;;9.20;61.40;;;;;;5102123;28;20079;-67
2021/01/10 01:20:46;;;;;;;23.95;15.32;;;9.20;61.50;;;;;;5102264;28;20401;-65
2021/01/10 01:23:12;;;;;;;21.58;13.32;;;9.20;61.50;;;;;;5107030;28;20012;-68
2021/01/10 01:25:38;;;;;;;23.92;14.15;;;9.20;61.50;;;;;;5108943;28;20016;-66
2021/01/10 01:28:05;;;;;;;20.58;13.27;;;9.20;61.50;;;;;;5109187;28;20020;-68
2021/01/10 01:30:31;;;;;;;23.55;13.85;;;9.30;61.40;;;;;;5108871;28;20028;-64
2021/01/10 01:32:56;;;;;;;21.42;13.43;;;9.20;61.30;;;;;;5108888;28;20046;-68
2021/01/10 01:35:22;;;;;;;19.67;12.57;;;9.20;61.40;;;;;;5108766;28;20073;-68
2021/01/10 01:37:48;;;;;;;22.58;14.13;;;9.20;61.20;;;;;;5108845;28;20078;-66
2021/01/10 01:40:13;;;;;;;23.33;14.90;;;9.20;61.60;;;;;;5108890;28;20023;-68
2021/01/10 01:42:39;;;;;;;21.23;13.18;;;9.20;61.30;;;;;;5108757;28;20330;-68
2021/01/10 01:45:07;;;;;;;21.67;14.05;;;9.20;61.50;;;;;;5108766;28;20035;-66
2021/01/10 01:47:34;;;;;;;25.00;14.95;;;9.20;61.50;;;;;;5108684;28;20020;-66
2021/01/10 01:50:05;;;;;;;22.45;13.25;;;9.20;61.50;;;;;;5108747;28;20016;-67
2021/01/10 01:52:31;;;;;;;23.42;14.65;;;9.20;61.50;;;;;;5108684;28;20028;-65
2021/01/10 01:54:57;;;;;;;23.85;14.32;;;9.20;61.20;;;;;;5108681;28;20251;-67
2021/01/10 01:57:22;;;;;;;20.92;13.73;;;9.30;61.20;;;;;;5108631;28;20080;-68
2021/01/10 01:59:48;;;;;;;22.60;14.23;;;9.20;61.10;;;;;;5108564;28;20079;-67
2021/01/10 02:02:14;;;;;;;21.67;13.13;;;9.20;61.10;;;;;;5108654;28;20020;-68
2021/01/10 02:04:50;;;;;;;22.73;13.65;;;9.20;61.40;;;;;;5108614;28;20043;-68
2021/01/10 02:07:33;;;;;;;21.90;13.70;;;9.30;61.20;;;;;;5108616;28;20024;-66
2021/01/10 02:10:13;;;;;;;23.73;14.80;;;9.30;61.30;;;;;;5108546;28;20043;-66
2021/01/10 02:13:01;;;;;;;24.50;14.65;;;9.20;61.20;;;;;;5108501;28;20016;-66
2021/01/10 02:15:34;;;;;;;23.30;14.63;;;9.20;61.20;;;;;;5108507;28;20092;-68
2021/01/10 02:18:02;;;;;;;21.48;13.30;;;9.20;61.10;;;;;;5108268;28;20112;-66
2021/01/10 02:20:28;;;;;;;22.17;14.23;;;9.20;61.20;;;;;;5108506;28;20012;-67
2021/01/10 02:23:16;;;;;;;20.65;12.90;;;9.20;61.30;;;;;;5108431;28;20057;-67
2021/01/10 02:25:43;;;;;;;24.20;14.10;;;9.20;61.40;;;;;;5108382;28;20079;-68
2021/01/10 02:28:09;;;;;;;22.27;13.98;;;9.20;61.30;;;;;;5108369;28;20016;-65
2021/01/10 02:30:39;;;;;;;23.92;13.70;;;9.20;61.10;;;;;;5108359;28;20024;-66
2021/01/10 02:33:24;;;;;;;20.20;13.02;;;9.20;61.00;;;;;;5107963;28;20020;-67
2021/01/10 02:35:50;;;;;;;22.02;13.77;;;9.30;61.10;;;;;;5104677;28;20324;-67
2021/01/10 02:38:32;;;;;;;22.25;13.55;;;9.20;61.00;;;;;;5105117;28;20091;-68
2021/01/10 02:41:07;;;;;;;19.25;12.55;;;9.20;60.90;;;;;;5105100;28;20205;-67
2021/01/10 02:43:34;;;;;;;20.65;13.10;;;9.20;60.90;;;;;;5105053;28;20031;-67
2021/01/10 02:46:05;;;;;;;18.13;11.85;;;9.20;61.20;;;;;;5104926;28;20036;-66
2021/01/10 02:48:31;;;;;;;24.60;13.43;;;9.20;61.20;;;;;;5104916;28;20052;-67
2021/01/10 02:50:57;;;;;;;20.77;12.60;;;9.20;61.20;;;;;;5104850;28;20023;-67
2021/01/10 02:53:22;;;;;;;21.77;12.35;;;9.20;61.20;;;;;;5104808;28;20185;-65
2021/01/10 02:55:48;;;;;;;20.05;12.30;;;9.20;61.10;;;;;;5104640;28;20054;-66
2021/01/10 02:58:25;;;;;;;21.15;13.30;;;9.20;61.00;;;;;;5104714;28;20339;-68
2021/01/10 03:00:53;;;;;;;19.70;12.75;;;9.20;60.90;;;;;;5104617;28;20028;-66
2021/01/10 03:03:19;;;;;;;20.23;12.80;;;9.20;60.70;;;;;;5104656;28;20084;-67
2021/01/10 03:05:47;;;;;;;20.98;13.05;;;9.20;60.80;;;;;;5104524;28;20083;-64
2021/01/10 03:08:14;;;;;;;21.73;13.98;;;9.20;60.90;;;;;;5104521;28;20024;-67
2021/01/10 03:10:41;;;;;;;19.73;12.63;;;9.20;61.00;;;;;;5104443;28;20031;-67
2021/01/10 03:13:07;;;;;;;20.05;12.90;;;9.20;61.10;;;;;;5104462;28;20020;-67
2021/01/10 03:15:34;;;;;;;21.40;13.38;;;9.20;61.00;;;;;;5104271;28;20020;-67
2021/01/10 03:18:22;;;;;;;21.15;13.00;;;9.20;60.90;;;;;;5104166;28;20042;-67
2021/01/10 03:20:48;;;;;;;22.23;13.27;;;9.20;60.70;;;;;;5104274;28;20012;-66
2021/01/10 03:23:15;;;;;;;17.15;11.40;;;9.10;60.80;;;;;;5104236;28;20035;-67
2021/01/10 03:25:41;;;;;;;20.30;11.73;;;9.10;61.10;;;;;;5104112;28;20451;-66
2021/01/10 03:28:07;;;;;;;18.90;12.40;;;9.20;61.40;;;;;;5104148;28;20020;-65
2021/01/10 03:30:33;;;;;;;18.48;12.55;;;9.20;61.30;;;;;;5104076;28;20024;-67
2021/01/10 03:33:00;;;;;;;21.70;13.60;;;9.20;60.90;;;;;;5104021;28;20088;-66
2021/01/10 03:35:26;;;;;;;20.65;12.95;;;9.20;60.80;;;;;;5103945;28;20031;-66
2021/01/10 03:37:51;;;;;;;21.02;12.65;;;9.20;60.80;;;;;;5103944;28;20075;-68
2021/01/10 03:40:17;;;;;;;19.50;12.40;;;9.20;61.00;;;;;;5103883;28;20080;-67
2021/01/10 03:42:43;;;;;;;19.42;13.00;;;9.20;60.90;;;;;;5103901;28;20024;-68
2021/01/10 03:45:11;;;;;;;21.45;13.10;;;9.10;61.00;;;;;;5103540;28;20035;-67
2021/01/10 03:47:37;;;;;;;21.33;13.27;;;9.10;61.10;;;;;;5103768;28;20019;-66
2021/01/10 03:50:04;;;;;;;20.25;13.02;;;9.10;61.00;;;;;;5103770;28;20197;-66
2021/01/10 03:52:30;;;;;;;22.10;14.02;;;9.10;60.90;;;;;;5103660;28;20245;-66
2021/01/10 03:54:56;;;;;;;18.90;12.00;;;9.10;61.10;;;;;;5103508;28;20035;-67
2021/01/10 03:57:22;;;;;;;20.92;12.98;;;9.20;61.30;;;;;;5103596;28;20189;-68
2021/01/10 03:59:47;;;;;;;20.85;13.40;;;9.20;61.10;;;;;;5102254;28;20091;-68
2021/01/10 04:02:13;;;;;;;21.42;13.73;;;9.20;61.10;;;;;;5103507;28;20016;-66
2021/01/10 04:04:39;;;;;;;24.70;14.02;;;9.20;61.10;;;;;;5103442;28;20243;-61
2021/01/10 04:07:06;;;;;;;22.08;13.75;;;9.20;60.90;;;;;;5102209;28;20023;-68
2021/01/10 04:09:32;;;;;;;21.45;13.57;;;9.20;61.00;;;;;;5103332;28;20023;-68
2021/01/10 04:11:58;;;;;;;18.08;12.60;;;9.20;61.20;;;;;;5103305;28;20220;-67
2021/01/10 04:14:24;;;;;;;20.05;12.57;;;9.10;61.30;;;;;;5103309;28;20328;-67
2021/01/10 04:16:53;;;;;;;24.05;14.43;;;9.10;61.20;;;;;;5102770;28;20081;-66
2021/01/10 04:19:20;;;;;;;26.35;15.80;;;9.10;61.20;;;;;;5103101;28;20069;-67
2021/01/10 04:21:46;;;;;;;22.10;12.80;;;9.10;61.20;;;;;;5103163;28;20035;-66
2021/01/10 04:24:12;;;;;;;19.38;13.13;;;9.10;61.20;;;;;;5103064;28;20016;-67
2021/01/10 04:26:39;;;;;;;20.25;13.35;;;9.10;61.30;;;;;;5103064;28;20027;-66
2021/01/10 04:29:05;;;;;;;23.90;14.15;;;9.20;61.40;;;;;;5103023;28;20032;-67
2021/01/10 04:31:31;;;;;;;19.77;13.05;;;9.20;61.30;;;;;;5102905;28;20043;-65
2021/01/10 04:33:57;;;;;;;20.27;13.15;;;9.20;61.20;;;;;;5102893;28;20031;-67
2021/01/10 04:36:28;;;;;;;22.90;13.85;;;9.20;61.00;;;;;;5102776;28;20027;-65
2021/01/10 04:38:56;;;;;;;19.20;13.25;;;9.20;60.90;;;;;;5102887;28;20043;-68
2021/01/10 04:41:23;;;;;;;22.10;13.32;;;9.20;61.10;;;;;;5102724;28;20316;-66
2021/01/10 04:43:50;;;;;;;23.40;13.75;;;9.20;61.10;;;;;;5102672;28;20083;-67
2021/01/10 04:46:16;;;;;;;19.92;13.20;;;9.10;61.10;;;;;;5102647;28;20097;-68
2021/01/10 04:48:42;;;;;;;24.77;14.70;;;9.20;61.10;;;;;;5102638;28;20087;-68
2021/01/10 04:51:13;;;;;;;20.58;12.50;;;9.10;61.00;;;;;;5102647;28;20020;-68
2021/01/10 04:53:40;;;;;;;21.63;14.27;;;9.10;61.90;;;;;;5102531;28;20119;-67
2021/01/10 04:56:09;;;;;;;23.08;13.57;;;9.10;61.30;;;;;;5102553;28;20024;-66
2021/01/10 04:58:36;;;;;;;22.00;14.00;;;9.10;61.30;;;;;;5102027;28;20016;-69
2021/01/10 05:01:02;;;;;;;19.88;13.05;;;9.10;61.10;;;;;;5101298;28;20020;-67
2021/01/10 05:03:31;;;;;;;21.58;13.25;;;9.10;61.00;;;;;;5102399;28;20023;-67
2021/01/10 05:05:57;;;;;;;20.83;13.37;;;9.20;61.00;;;;;;5102466;28;20050;-68
2021/01/10 05:08:25;;;;;;;20.50;12.60;;;9.20;60.80;;;;;;5102301;28;20259;-68
2021/01/10 05:10:51;;;;;;;20.58;12.35;;;9.20;61.00;;;;;;5102379;28;20328;-67
2021/01/10 05:13:17;;;;;;;20.15;13.43;;;9.10;60.80;;;;;;5102305;28;20308;-68
2021/01/10 05:15:44;;;;;;;22.17;14.02;;;9.10;61.00;;;;;;5102205;28;20049;-68
2021/01/10 05:18:10;;;;;;;21.90;13.70;;;9.10;61.10;;;;;;5102144;28;20079;-68
2021/01/10 05:20:36;;;;;;;20.05;12.95;;;9.10;61.10;;;;;;5102270;28;20028;-67
2021/01/10 05:23:02;;;;;;;21.75;13.65;;;9.10;61.10;;;;;;5102226;28;20075;-67
2021/01/10 05:25:29;;;;;;;21.83;13.82;;;9.10;61.20;;;;;;5102228;28;20031;-66
2021/01/10 05:27:56;;;;;;;20.35;12.90;;;9.10;61.20;;;;;;5102220;28;20101;-68
2021/01/10 05:30:39;;;;;;;20.23;12.63;;;9.10;61.30;;;;;;5102173;28;20020;-65
2021/01/10 05:33:07;;;;;;;21.98;13.18;;;9.10;61.40;;;;;;5102197;28;20074;-67
2021/01/10 05:35:52;;;;;;;19.42;12.73;;;9.10;61.30;;;;;;5102032;28;20023;-66
2021/01/10 05:38:29;;;;;;;22.00;13.52;;;9.20;61.20;;;;;;5102452;28;20118;-65
2021/01/10 05:40:57;;;;;;;20.48;13.55;;;9.20;61.00;;;;;;5100892;28;20414;-67
2021/01/10 05:43:24;;;;;;;24.13;14.30;;;9.20;60.90;;;;;;5102064;28;20065;-65
2021/01/10 05:45:50;;;;;;;20.98;13.18;;;9.10;61.00;;;;;;5101952;28;20024;-67
2021/01/10 05:48:17;;;;;;;22.27;14.02;;;9.10;61.00;;;;;;5102098;28;20024;-68
2021/01/10 05:50:44;;;;;;;21.08;14.32;;;9.10;60.90;;;;;;5102212;28;20020;-67
2021/01/10 05:53:39;;;;;;;23.35;13.75;;;9.10;61.00;;;;;;5101954;28;20024;-67
2021/01/10 05:56:05;;;;;;;21.20;13.80;;;9.10;61.30;;;;;;5101875;28;20020;-65
2021/01/10 05:58:32;;;;;;;22.75;14.13;;;9.10;61.20;;;;;;5101868;28;20035;-65
2021/01/10 06:01:16;;;;;;;22.08;13.70;;;9.10;61.30;;;;;;5101896;28;20012;-65
2021/01/10 06:03:41;;;;;;;23.40;14.38;;;9.10;61.30;;;;;;5101888;28;20271;-68
2021/01/10 06:06:07;;;;;;;23.33;14.95;;;9.10;61.00;;;;;;5101809;28;20016;-68
2021/01/10 06:08:38;;;;;;;22.50;14.10;;;9.20;61.00;;;;;;5101767;28;20048;-66
2021/01/10 06:11:22;;;;;;;21.85;14.20;;;9.20;61.00;;;;;;5105554;28;20039;-67
2021/01/10 06:14:02;;;;;;;22.00;14.15;;;9.20;61.00;;;;;;5105623;28;20215;-64
2021/01/10 06:16:37;;;;;;;21.42;13.93;;;9.10;61.00;;;;;;5105418;28;20019;-66
2021/01/10 06:19:07;;;;;;;24.48;15.35;;;9.10;60.90;;;;;;5105554;28;20052;-67
2021/01/10 06:21:34;;;;;;;23.70;14.10;;;9.10;61.00;;;;;;5105711;28;20012;-68
2021/01/10 06:24:01;;;;;;;22.63;14.95;;;9.10;61.00;;;;;;5105365;28;20040;-66
2021/01/10 06:26:32;;;;;;;21.25;13.60;;;9.10;61.10;;;;;;5105611;28;20040;-66
2021/01/10 06:29:01;;;;;;;22.42;14.98;;;9.10;61.00;;;;;;5105325;28;20051;-68
2021/01/10 06:31:38;;;;;;;23.02;14.65;;;9.10;61.00;;;;;;5105340;28;20357;-66
2021/01/10 06:34:06;;;;;;;22.90;14.07;;;9.10;61.20;;;;;;5105302;28;20028;-68
2021/01/10 06:36:34;;;;;;;23.80;14.60;;;9.10;61.30;;;;;;5105065;28;20026;-68
2021/01/10 06:39:06;;;;;;;22.33;13.25;;;9.10;61.10;;;;;;5105112;28;20231;-68
2021/01/10 06:41:34;;;;;;;20.00;13.23;;;9.10;60.80;;;;;;5105149;28;20216;-68
2021/01/10 06:44:03;;;;;;;22.80;14.05;;;9.10;60.80;;;;;;5105012;28;20204;-67
2021/01/10 06:46:29;;;;;;;18.55;12.60;;;9.10;60.80;;;;;;5104980;28;20024;-64
2021/01/10 06:48:55;;;;;;;24.23;14.70;;;9.10;60.70;;;;;;5104986;28;20026;-68
2021/01/10 06:51:29;;;;;;;24.40;14.77;;;9.10;61.00;;;;;;5104883;28;20043;-65
2021/01/10 06:53:55;;;;;;;21.83;13.27;;;9.10;60.90;;;;;;5104869;28;20079;-68
2021/01/10 06:56:21;;;;;;;21.90;13.85;;;9.10;61.00;;;;;;5104805;28;20031;-66
2021/01/10 06:59:24;;;;;;;21.60;14.65;;;9.10;61.10;;;;;;5104740;28;20019;-68
2021/01/10 07:01:51;;;;;;;24.65;14.43;;;9.10;61.20;;;;;;5104647;28;20103;-68
2021/01/10 07:04:21;;;;;;;25.67;14.93;;;9.10;61.20;;;;;;5104702;28;20011;-68
2021/01/10 07:06:48;;;;;;;21.80;13.80;;;9.10;61.20;;;;;;5104572;28;20027;-66
2021/01/10 07:09:14;;;;;;;25.38;15.93;;;9.10;60.80;;;;;;5104560;28;20047;-67
2021/01/10 07:11:41;;;;;;;22.17;13.20;;;9.10;60.70;;;;;;5104566;28;20020;-68
2021/01/10 07:14:13;;;;;;;21.17;13.20;;;9.20;60.70;;;;;;5104512;28;20023;-65
2021/01/10 07:16:40;;;;;;;17.88;11.80;;;9.20;60.70;;;;;;5104140;28;20124;-64
2021/01/10 07:19:08;;;;;;;21.93;13.50;;;9.10;60.70;;;;;;5104696;28;20248;-66
2021/01/10 07:21:36;;;;;;;18.45;12.48;;;9.10;60.80;;;;;;5103789;28;20050;-68
2021/01/10 07:24:19;;;;;;;19.38;12.70;;;9.10;60.80;;;;;;5104291;28;20019;-68
2021/01/10 07:26:49;;;;;;;20.50;12.88;;;9.10;60.60;;;;;;5104240;28;20080;-66
2021/01/10 07:29:38;;;;;;;21.80;13.52;;;9.10;60.80;;;;;;5104191;28;20039;-66
2021/01/10 07:32:18;;;;;;;22.63;13.52;;;9.10;60.90;;;;;;5104147;28;20350;-66
2021/01/10 07:34:46;;;;;;;20.58;12.50;;;9.10;60.80;;;;;;5103962;28;20027;-68
2021/01/10 07:37:15;;;;;;;20.77;12.88;;;9.10;61.00;;;;;;5103971;28;20250;-68
2021/01/10 07:39:58;;;;;;;21.45;14.18;;;9.10;61.00;;;;;;5104197;28;20016;-66
2021/01/10 07:42:26;;;;;;;20.92;12.85;;;9.10;60.90;;;;;;5103990;28;20026;-68
2021/01/10 07:44:55;;;;;;;20.60;13.15;;;9.10;60.60;;;;;;5103826;28;20015;-67
2021/01/10 07:47:29;;;;;;;19.42;13.25;;;9.10;60.70;;;;;;5103764;28;20073;-65
2021/01/10 07:49:57;;;;;;;20.65;12.77;;;9.20;60.70;;;;;;5103783;28;20211;-65
2021/01/10 07:52:41;;;;;;;22.20;13.52;;;9.10;60.60;;;;;;5103711;28;20038;-67
2021/01/10 07:55:31;;;;;;;21.10;12.98;;;9.10;60.60;;;;;;5102470;28;20016;-65
2021/01/10 07:58:03;;;;;;;20.60;12.68;;;9.10;60.70;;;;;;5100269;28;20220;-66
2021/01/10 08:00:45;;;;;;;19.17;12.48;;;9.10;60.80;;;;;;5103481;28;20383;-63
2021/01/10 08:03:19;;;;;;;19.42;12.60;;;9.10;60.90;;;;;;5102266;28;20023;-66
2021/01/10 08:06:03;;;;;;;24.10;13.73;;;9.00;60.90;;;;;;5103487;28;20287;-68
2021/01/10 08:08:37;;;;;;;19.23;12.48;;;9.10;61.00;;;;;;5102217;28;20276;-65
2021/01/10 08:11:03;;;;;;;22.23;13.68;;;9.10;60.80;;;;;;5103293;28;20304;-66
2021/01/10 08:13:30;;;;;;;19.45;12.68;;;9.10;60.70;;;;;;5103246;28;20027;-63
2021/01/10 08:16:13;;;;;;;16.63;11.57;;;9.10;60.70;;;;;;5103132;28;20028;-67
2021/01/10 08:18:41;;;;;;;21.23;13.88;;;9.10;60.70;;;;;;5102937;28;20162;-65
2021/01/10 08:21:10;;;;;;;21.35;12.98;;;9.10;60.80;;;;;;5103154;28;20228;-67
2021/01/10 08:23:37;;;;;;;19.67;13.13;;;9.10;60.70;;;;;;5103152;28;20587;-66
2021/01/10 08:26:17;;;;;;;22.65;13.30;;;9.10;60.80;;;;;;5103040;28;20032;-66
2021/01/10 08:28:51;;;;;;;19.15;12.52;;;9.10;60.90;;;;;;5102965;28;20020;-66
2021/01/10 08:31:20;;;;;;;19.65;12.88;;;9.10;60.70;;;;;;5102541;28;20095;-67
2021/01/10 08:33:46;;;;;;;;;;;9.10;60.70;;;;;;5103074;28;20023;-66
2021/01/10 08:36:18;;;;;;;18.23;11.93;;;9.10;60.90;;;;;;5102780;28;20005;-66
2021/01/10 08:39:06;;;;;;;19.55;12.30;;;9.10;61.00;;;;;;5102873;28;20043;-67
2021/01/10 08:41:34;;;;;;;21.38;12.50;;;9.10;61.00;;;;;;5102880;28;20032;-68
2021/01/10 08:44:10;;;;;;;20.92;13.18;;;9.10;60.70;;;;;;5102791;28;20019;-67
2021/01/10 08:46:39;;;;;;;22.13;12.57;;;9.20;60.60;;;;;;5102807;28;20043;-66
2021/01/10 08:49:04;;;;;;;20.63;13.13;;;9.20;60.50;;;;;;5102731;28;20018;-68
2021/01/10 08:51:39;;;;;;;19.55;12.98;;;9.10;60.50;;;;;;5102588;28;20036;-68
2021/01/10 08:54:14;;;;;;;18.80;12.23;;;9.20;60.60;;;;;;5102219;28;20069;-68
2021/01/10 08:56:41;;;;;;;18.80;12.63;;;9.10;60.80;;;;;;5102514;28;20031;-68
2021/01/10 08:59:09;;;;;;;19.15;11.80;;;9.10;60.80;;;;;;5102534;28;20346;-68
2021/01/10 09:01:35;;;;;;;20.85;13.00;;;9.10;60.80;;;;;;5102508;28;20012;-67
2021/01/10 09:04:15;;;;;;;19.17;12.80;;;9.10;60.90;;;;;;5102458;28;20069;-64
2021/01/10 09:06:52;;;;;;;21.15;13.65;;;9.10;60.90;;;;;;5102374;28;20040;-68
2021/01/10 09:09:36;;;;;;;20.35;12.63;;;9.10;60.80;;;;;;5102483;28;20063;-67
2021/01/10 09:12:08;;;;;;;20.50;13.10;;;9.10;60.60;;;;;;5102336;28;20020;-67
2021/01/10 09:14:42;;;;;;;19.52;11.93;;;9.20;60.60;;;;;;5102343;28;20073;-67
2021/01/10 09:17:10;;;;;;;20.55;12.50;;;9.20;60.50;;;;;;5102119;28;20088;-67
2021/01/10 09:19:37;;;;;;;21.30;13.13;;;9.20;60.50;;;;;;5102384;28;20031;-67
2021/01/10 09:22:03;;;;;;;18.08;12.05;;;9.10;60.60;;;;;;5102268;28;20084;-66
2021/01/10 09:24:34;;;;;;;20.23;12.25;;;9.10;60.60;;;;;;5102228;28;20315;-65
2021/01/10 09:27:14;;;;;;;20.00;12.23;;;9.10;60.70;;;;;;5102176;28;20028;-66
2021/01/10 09:29:41;;;;;;;19.40;12.57;;;9.10;60.70;;;;;;5102183;28;20016;-67
2021/01/10 09:32:08;;;;;;;18.67;12.15;;;9.10;60.70;;;;;;5102162;28;20213;-64
2021/01/10 09:34:34;;;;;;;21.45;12.43;;;9.10;60.70;;;;;;5102151;28;20020;-67
2021/01/10 09:37:09;;;;;;;20.73;12.05;;;9.10;60.90;;;;;;5101974;28;20065;-67
2021/01/10 09:39:40;;;;;;;20.77;12.13;;;9.10;61.00;;;;;;5102149;28;20492;-69
2021/01/10 09:42:07;;;;;;;21.05;13.55;;;9.10;61.00;;;;;;5102079;28;20035;-66
2021/01/10 09:44:33;;;;;;;18.67;12.10;;;9.10;60.70;;;;;;5105260;28;20038;-69
2021/01/10 09:47:00;;;;;;;19.13;12.57;;;9.20;60.60;;;;;;5106125;28;20020;-67
2021/01/10 09:49:30;;;;;;;19.05;11.57;;;9.20;60.60;;;;;;5106083;28;20027;-66
2021/01/10 09:51:57;;;;;;;19.85;12.15;;;9.10;60.60;;;;;;5106103;28;20030;-68
2021/01/10 09:54:24;;;;;;;17.83;12.00;;;9.10;60.70;;;;;;5105944;28;20020;-67
2021/01/10 09:56:56;;;;;;;20.15;11.88;;;9.10;60.70;;;;;;5105877;28;20043;-68
2021/01/10 09:59:40;;;;;;;20.67;11.95;;;9.10;60.70;;;;;;5105906;28;20062;-68
2021/01/10 10:02:13;;;;;;;19.10;11.80;;;9.10;60.70;;;;;;5105920;28;20049;-64
2021/01/10 10:04:41;;;;;;;20.48;12.57;;;9.10;60.70;;;;;;5105824;28;20239;-66
2021/01/10 10:07:07;;;;;;;20.05;12.30;;;9.10;60.80;;;;;;5105786;28;20059;-68
2021/01/10 10:09:46;;;;;;;18.42;11.48;;;9.10;60.80;;;;;;5105688;28;20030;-66
2021/01/10 10:12:12;;;;;;;20.00;12.30;;;9.10;60.50;;;;;;5105614;28;20022;-64
2021/01/10 10:14:38;;;;;;;19.10;11.65;;;9.10;60.70;;;;;;5105658;28;20065;-66
2021/01/10 10:17:04;;;;;;;19.23;12.68;;;9.10;60.60;;;;;;5105279;28;20012;-67
2021/01/10 10:19:30;;;;;;;20.83;12.43;;;9.10;60.60;;;;;;5105526;28;20044;-67
2021/01/10 10:21:55;;;;;;;21.13;12.73;;;9.10;60.70;;;;;;5105473;28;20020;-67
2021/01/10 10:24:21;;;;;;;23.02;12.60;;;9.10;60.60;;;;;;5105413;28;20024;-67
2021/01/10 10:26:47;;;;;;;20.10;11.68;;;9.10;60.50;;;;;;5105398;28;20024;-66
2021/01/10 10:29:14;;;;;;;20.80;12.75;;;9.10;60.60;;;;;;5105344;28;20019;-66
2021/01/10 10:31:39;;;;;;;20.85;13.05;;;9.10;60.80;;;;;;5105327;28;20087;-66
2021/01/10 10:34:05;;;;;;;20.38;12.32;;;9.10;60.60;;;;;;5105292;28;20020;-68
2021/01/10 10:36:31;;;;;;;21.42;13.00;;;9.10;60.70;;;;;;5105170;28;20096;-65
2021/01/10 10:38:56;;;;;;;16.85;10.80;;;9.10;60.90;;;;;;5105211;28;20023;-67
2021/01/10 10:41:22;;;;;;;17.10;11.43;;;9.10;60.90;;;;;;5105076;28;20024;-67
2021/01/10 10:43:48;;;;;;;20.00;12.38;;;9.10;60.70;;;;;;5105046;28;20023;-64
2021/01/10 10:46:14;;;;;;;17.98;12.52;;;9.10;60.60;;;;;;5105037;28;20019;-68
2021/01/10 10:48:39;;;;;;;20.02;11.57;;;9.20;60.60;;;;;;5104945;28;20015;-68
2021/01/10 10:51:05;;;;;;;20.58;13.07;;;9.10;60.60;;;;;;5104926;28;20340;-66
2021/01/10 10:53:31;;;;;;;18.13;11.32;;;9.20;60.60;;;;;;5104837;28;20205;-65
2021/01/10 10:55:57;;;;;;;20.08;12.35;;;9.10;60.40;;;;;;5103895;28;20058;-65
2021/01/10 10:58:22;;;;;;;17.17;10.75;;;9.10;60.80;;;;;;5104805;28;20020;-65
2021/01/10 11:00:48;;;;;;;20.83;12.65;;;9.10;60.80;;;;;;5104733;28;20066;-66
2021/01/10 11:03:14;;;;;;;18.85;12.05;;;9.10;60.90;;;;;;5104740;28;20043;-67
2021/01/10 11:05:40;;;;;;;18.27;11.52;;;9.10;60.80;;;;;;5104632;28;20212;-68
2021/01/10 11:08:05;;;;;;;20.88;13.07;;;9.10;60.90;;;;;;5104637;28;20031;-66
2021/01/10 11:10:31;;;;;;;20.33;13.23;;;9.10;60.60;;;;;;5104565;28;20031;-66
2021/01/10 11:12:57;;;;;;;20.13;12.00;;;9.20;60.70;;;;;;5104532;28;20065;-66
2021/01/10 11:15:22;;;;;;;17.55;10.95;;;9.10;60.60;;;;;;5104441;28;20027;-65
2021/01/10 11:17:48;;;;;;;18.98;12.40;;;9.10;60.50;;;;;;5104228;28;20243;-67
2021/01/10 11:20:14;;;;;;;18.90;12.02;;;9.10;60.50;;;;;;5104422;28;20065;-67
2021/01/10 11:22:41;;;;;;;17.77;11.63;;;9.10;60.60;;;;;;5104289;28;20057;-66
2021/01/10 11:25:07;;;;;;;18.00;11.88;;;9.10;60.70;;;;;;5104291;28;20024;-66
2021/01/10 11:27:33;;;;;;;20.77;12.13;;;9.10;60.60;;;;;;5104181;28;20025;-65
2021/01/10 11:29:59;;;;;;;21.10;12.80;;;9.10;60.60;;;;;;5104215;28;20040;-63
2021/01/10 11:32:24;;;;;;;20.65;12.80;;;9.10;60.80;;;;;;5104134;28;20086;-67
2021/01/10 11:34:50;;;;;;;16.52;11.25;;;9.10;60.90;;;;;;5104059;28;20027;-68
2021/01/10 11:37:16;;;;;;;22.38;12.88;;;9.10;60.70;;;;;;5104041;28;20216;-65
2021/01/10 11:39:42;;;;;;;19.83;12.10;;;9.10;60.90;;;;;;5103975;28;20366;-67
2021/01/10 11:42:13;;;;;;;18.00;12.45;;;9.10;61.00;;;;;;5103974;28;20208;-66
2021/01/10 11:44:38;;;;;;;21.70;12.90;;;9.10;60.90;;;;;;5103906;28;20205;-66
2021/01/10 11:47:04;;;;;;;19.13;12.15;;;9.10;60.70;;;;;;5103854;28;20037;-68
2021/01/10 11:49:30;;;;;;;19.23;11.95;;;9.10;60.60;;;;;;5103751;28;20016;-67
2021/01/10 11:51:56;;;;;;;17.88;11.40;;;9.10;60.50;;;;;;5103795;28;20043;-66
2021/01/10 11:54:22;;;;;;;18.08;11.07;;;9.10;60.50;;;;;;5103675;28;20016;-67
2021/01/10 11:56:48;;;;;;;20.55;11.85;;;9.10;60.60;;;;;;5103596;28;20027;-66
2021/01/10 11:59:14;;;;;;;19.70;12.07;;;9.10;60.70;;;;;;5103611;28;20020;-68
2021/01/10 12:01:41;;;;;;;20.02;12.20;;;9.10;60.70;;;;;;5103547;28;20016;-68
2021/01/10 12:04:08;;;;;;;20.25;12.40;;;9.10;60.80;;;;;;5103596;28;20020;-67
2021/01/10 12:06:36;;;;;;;20.38;11.52;;;9.10;60.60;;;;;;5103410;28;20038;-68
2021/01/10 12:09:03;;;;;;;19.20;11.30;;;9.10;60.70;;;;;;5103377;28;20024;-67
2021/01/10 12:11:29;;;;;;;20.95;11.90;;;9.10;60.70;;;;;;5103309;28;20224;-67
2021/01/10 12:13:55;;;;;;;19.00;11.57;;;9.10;60.60;;;;;;5103364;28;20079;-67
2021/01/10 12:16:21;;;;;;;19.67;11.95;;;9.10;60.50;;;;;;5103206;28;20126;-67
2021/01/10 12:18:47;;;;;;;18.98;11.63;;;9.10;60.50;;;;;;5101917;28;20032;-67
2021/01/10 12:21:14;;;;;;;18.95;11.52;;;9.10;60.50;;;;;;5103234;28;20031;-68
2021/01/10 12:23:41;;;;;;;19.08;11.68;;;9.10;60.70;;;;;;5103074;28;20061;-67
2021/01/10 12:26:12;;;;;;;19.13;11.60;;;9.10;60.60;;;;;;5103167;28;20024;-66
2021/01/10 12:28:38;;;;;;;19.38;11.13;;;9.10;60.80;;;;;;5103179;28;20331;-69
2021/01/10 12:31:05;;;;;;;20.98;11.70;;;9.10;60.60;;;;;;5103082;28;20052;-67
2021/01/10 12:33:38;;;;;;;19.77;11.65;;;9.10;60.80;;;;;;5102957;28;20032;-66
2021/01/10 12:36:06;;;;;;;20.58;12.68;;;9.10;60.60;;;;;;5102913;28;20020;-69
2021/01/10 12:38:31;;;;;;;21.92;12.35;;;9.10;60.70;;;;;;5102826;28;20212;-68
2021/01/10 12:40:57;;;;;;;18.63;11.70;;;9.10;60.80;;;;;;5102845;28;20039;-68
2021/01/10 12:43:23;;;;;;;19.38;11.40;;;9.10;61.00;;;;;;5102822;28;20083;-69
2021/01/10 12:45:49;;;;;;;19.15;11.13;;;9.10;60.70;;;;;;5102714;28;20066;-65
2021/01/10 12:48:17;;;;;;;18.63;11.40;;;9.10;60.50;;;;;;5102732;28;20312;-69